createdAt,value
2023-05-10T00:00:23.677Z,62.82
2023-05-10T00:03:25.695Z,62.95
2023-05-10T00:06:27.919Z,63.86
2023-05-10T00:09:32.097Z,63.82
2023-05-10T00:12:33.875Z,63.00
2023-05-10T00:15:36.053Z,62.37
2023-05-10T00:18:37.903Z,63.28
2023-05-10T00:21:39.676Z,62.57
2023-05-10T00:24:42.984Z,64.17
2023-05-10T00:27:44.781Z,62.70
2023-05-10T00:30:46.513Z,64.28
2023-05-10T00:33:48.295Z,64.87
2023-05-10T00:36:50.109Z,64.79
2023-05-10T00:39:54.305Z,65.84
2023-05-10T00:42:56.707Z,65.53
2023-05-10T00:45:58.880Z,65.72
2023-05-10T00:49:00.941Z,65.39
2023-05-10T00:52:04.105Z,65.25
2023-05-10T00:55:10.701Z,65.94
2023-05-10T00:58:13.362Z,66.76
2023-05-10T01:01:15.951Z,66.93
2023-05-10T01:04:17.872Z,67.93
2023-05-10T01:07:20.635Z,68.98
2023-05-10T01:10:24.088Z,68.05
2023-05-10T01:13:33.558Z,68.82
2023-05-10T01:16:38.469Z,69.45
2023-05-10T01:19:40.617Z,69.43
2023-05-10T01:23:11.040Z,69.45
2023-05-10T01:26:35.433Z,70.05
2023-05-10T01:30:21.902Z,70.39
2023-05-10T01:33:29.875Z,70.63
2023-05-10T01:36:36.160Z,70.87
2023-05-10T01:39:45.747Z,71.85
2023-05-10T01:42:53.393Z,71.63
2023-05-10T01:46:05.726Z,71.45
2023-05-10T01:49:11.695Z,71.30
2023-05-10T01:52:20.339Z,71.59
2023-05-10T01:55:24.295Z,71.66
2023-05-10T01:58:35.379Z,71.91
2023-05-10T02:01:38.951Z,71.99
2023-05-10T02:04:43.198Z,72.32
2023-05-10T02:07:46.588Z,72.35
2023-05-10T02:10:50.855Z,72.02
2023-05-10T02:13:55.024Z,72.13
2023-05-10T02:16:59.610Z,72.35
2023-05-10T02:20:04.980Z,72.78
2023-05-10T02:23:10.094Z,72.88
2023-05-10T02:26:14.468Z,72.32
2023-05-10T02:29:17.893Z,72.14
2023-05-10T02:32:20.485Z,72.11
2023-05-10T02:35:25.298Z,72.40
2023-05-10T02:38:28.064Z,72.45
2023-05-10T02:41:33.465Z,72.10
2023-05-10T02:44:37.686Z,72.42
2023-05-10T02:47:40.638Z,72.36
2023-05-10T02:50:45.977Z,71.92
2023-05-10T02:53:49.304Z,70.18
2023-05-10T02:56:54.911Z,69.28
2023-05-10T02:59:56.941Z,68.18
2023-05-10T03:02:59.537Z,67.91
2023-05-10T03:06:02.821Z,68.16
2023-05-10T03:09:05.626Z,67.42
2023-05-10T03:12:15.192Z,67.37
2023-05-10T03:15:26.112Z,67.04
2023-05-10T03:18:34.891Z,66.51
2023-05-10T03:21:42.702Z,65.52
2023-05-10T03:24:47.745Z,64.50
2023-05-10T03:27:50.945Z,64.59
2023-05-10T03:30:54.117Z,63.96
2023-05-10T03:33:56.080Z,64.87
2023-05-10T03:36:59.397Z,64.69
2023-05-10T03:40:02.253Z,64.27
2023-05-10T03:43:04.164Z,64.52
2023-05-10T03:46:06.600Z,63.73
2023-05-10T03:49:09.136Z,64.45
2023-05-10T03:52:13.048Z,63.87
2023-05-10T03:55:15.230Z,64.44
2023-05-10T03:58:17.089Z,64.49
2023-05-10T04:01:18.880Z,64.43
2023-05-10T04:04:22.450Z,63.97
2023-05-10T04:07:25.641Z,64.88
2023-05-10T04:10:28.160Z,64.07
2023-05-10T04:13:29.926Z,63.64
2023-05-10T04:16:31.922Z,64.81
2023-05-10T04:19:34.780Z,63.90
2023-05-10T04:22:38.016Z,63.93
2023-05-10T04:25:40.121Z,64.09
2023-05-10T04:28:41.891Z,63.97
2023-05-10T04:31:43.737Z,62.63
2023-05-10T04:34:46.136Z,63.07
2023-05-10T04:37:49.398Z,62.73
2023-05-10T04:40:51.192Z,61.68
2023-05-10T04:43:53.113Z,62.75
2023-05-10T04:46:54.992Z,62.16
2023-05-10T04:49:57.043Z,61.30
2023-05-10T04:53:00.405Z,61.86
2023-05-10T04:56:02.217Z,61.42
2023-05-10T04:59:05.126Z,61.14
2023-05-10T05:02:07.040Z,60.55
2023-05-10T05:05:09.377Z,60.43
2023-05-10T05:08:12.605Z,59.77
2023-05-10T05:11:14.434Z,59.31
2023-05-10T05:14:17.017Z,59.34
2023-05-10T05:17:18.846Z,59.58
2023-05-10T05:20:21.201Z,59.34
2023-05-10T05:23:25.910Z,58.33
2023-05-10T05:26:27.761Z,59.02
2023-05-10T05:29:29.929Z,59.39
2023-05-10T05:32:31.885Z,58.50
2023-05-10T05:35:34.480Z,58.17
2023-05-10T05:38:37.862Z,58.44
2023-05-10T05:41:39.733Z,59.12
2023-05-10T05:44:41.980Z,59.63
2023-05-10T05:47:43.888Z,59.96
2023-05-10T05:50:46.670Z,58.43
2023-05-10T05:53:49.863Z,59.21
2023-05-10T05:56:51.821Z,58.97
2023-05-10T05:59:54.161Z,58.96
2023-05-10T06:02:56.073Z,61.19
2023-05-10T06:05:58.858Z,63.59
2023-05-10T06:09:02.098Z,63.34
2023-05-10T06:12:04.238Z,63.33
2023-05-10T06:15:06.988Z,63.19
2023-05-10T06:18:08.826Z,60.69
2023-05-10T06:21:10.891Z,61.49
2023-05-10T06:24:14.134Z,61.34
2023-05-10T06:27:15.953Z,60.95
2023-05-10T06:30:17.851Z,60.29
2023-05-10T06:33:19.640Z,59.96
2023-05-10T06:36:21.895Z,58.54
2023-05-10T06:39:25.138Z,57.92
2023-05-10T06:42:28.388Z,61.27
2023-05-10T06:45:30.207Z,61.82
2023-05-10T06:48:32.075Z,62.88
2023-05-10T06:51:34.000Z,60.99
2023-05-10T06:54:38.118Z,60.22
2023-05-10T06:57:39.856Z,59.46
2023-05-10T07:00:44.640Z,59.01
2023-05-10T07:03:46.540Z,59.11
2023-05-10T07:06:48.485Z,58.41
2023-05-10T07:09:52.283Z,59.21
2023-05-10T07:12:54.288Z,58.38
2023-05-10T07:15:56.140Z,58.76
2023-05-10T07:18:58.009Z,57.85
2023-05-10T07:22:00.694Z,58.75
2023-05-10T07:25:04.205Z,58.72
2023-05-10T07:28:06.825Z,59.48
2023-05-10T07:31:08.800Z,58.76
2023-05-10T07:34:11.016Z,59.08
2023-05-10T07:37:13.644Z,59.62
2023-05-10T07:40:16.903Z,56.91
2023-05-10T07:43:19.667Z,56.74
2023-05-10T07:46:21.712Z,57.32
2023-05-10T07:49:25.280Z,57.25
2023-05-10T07:52:27.159Z,56.67
2023-05-10T07:55:31.198Z,57.84
2023-05-10T07:58:33.195Z,57.67
2023-05-10T08:01:36.095Z,56.87
2023-05-10T08:04:37.991Z,57.23
2023-05-10T08:07:40.695Z,57.24
2023-05-10T08:10:44.168Z,58.50
2023-05-10T08:13:46.610Z,57.31
2023-05-10T08:16:48.639Z,58.08
2023-05-10T08:19:50.561Z,58.21
2023-05-10T08:22:52.458Z,58.23
2023-05-10T08:25:55.743Z,57.55
2023-05-10T08:28:58.460Z,57.05
2023-05-10T08:32:01.943Z,55.82
2023-05-10T08:35:04.976Z,56.29
2023-05-10T08:38:06.799Z,55.44
2023-05-10T08:41:12.202Z,54.12
2023-05-10T08:44:13.862Z,53.50
2023-05-10T08:47:19.235Z,52.70
2023-05-10T08:50:21.420Z,53.95
2023-05-10T08:53:26.777Z,54.35
2023-05-10T08:56:30.930Z,53.69
2023-05-10T08:59:34.152Z,54.21
2023-05-10T09:02:38.366Z,54.20
2023-05-10T09:05:40.314Z,51.16
2023-05-10T09:08:43.889Z,53.22
2023-05-10T09:11:47.670Z,53.12
2023-05-10T09:14:51.783Z,52.46
2023-05-10T09:17:53.938Z,52.16
2023-05-10T09:20:56.031Z,52.09
2023-05-10T09:23:58.340Z,53.03
2023-05-10T09:27:02.816Z,51.17
2023-05-10T09:30:07.612Z,50.64
2023-05-10T09:33:09.450Z,51.50
2023-05-10T09:36:11.995Z,51.15
2023-05-10T09:39:13.868Z,49.94
2023-05-10T09:42:19.648Z,49.79
2023-05-10T09:45:22.259Z,49.59
2023-05-10T09:48:25.914Z,45.65
2023-05-10T09:51:30.350Z,47.94
2023-05-10T09:54:32.943Z,47.98
2023-05-10T09:57:36.240Z,48.98
2023-05-10T10:00:40.317Z,47.78
2023-05-10T10:03:44.348Z,49.59
2023-05-10T10:06:46.343Z,49.57
2023-05-10T10:09:48.410Z,49.17
2023-05-10T10:12:51.919Z,48.42
2023-05-10T10:15:55.892Z,47.67
2023-05-10T10:18:57.998Z,50.04
2023-05-10T10:22:00.214Z,48.78
2023-05-10T10:25:02.429Z,49.62
2023-05-10T10:28:23.123Z,49.51
2023-05-10T10:31:32.157Z,49.37
2023-05-10T10:34:34.675Z,48.17
2023-05-10T10:37:45.161Z,48.10
2023-05-10T10:40:47.179Z,46.71
2023-05-10T10:43:50.387Z,47.17
2023-05-10T10:47:03.781Z,47.59
2023-05-10T10:50:09.092Z,48.55
2023-05-10T10:53:12.517Z,46.13
2023-05-10T10:56:16.330Z,46.33
2023-05-10T10:59:29.414Z,46.49
2023-05-10T11:02:36.344Z,47.86
2023-05-10T11:05:41.574Z,43.46
2023-05-10T11:08:47.117Z,43.38
2023-05-10T11:11:56.116Z,42.75
2023-05-10T11:15:00.079Z,44.27
2023-05-10T11:18:19.086Z,44.82
2023-05-10T11:21:21.060Z,43.73
2023-05-10T11:24:24.293Z,44.15
2023-05-10T11:27:26.670Z,43.76
2023-05-10T11:30:32.009Z,43.72
2023-05-10T11:33:43.784Z,44.10
2023-05-10T11:36:52.819Z,44.05
2023-05-10T11:39:56.134Z,45.21
2023-05-10T11:42:58.061Z,45.06
2023-05-10T11:46:01.516Z,44.80
2023-05-10T11:49:05.626Z,45.42
2023-05-10T11:52:08.251Z,45.57
2023-05-10T11:55:11.030Z,44.23
2023-05-10T11:58:12.835Z,44.65
2023-05-10T12:01:16.362Z,44.36
2023-05-10T12:04:18.423Z,43.44
2023-05-10T12:07:20.644Z,44.25
2023-05-10T12:10:28.266Z,44.29
2023-05-10T12:13:30.126Z,43.94
2023-05-10T12:16:33.592Z,44.81
2023-05-10T12:19:39.635Z,44.27
2023-05-10T12:22:41.596Z,44.55
2023-05-10T12:25:44.389Z,45.07
2023-05-10T12:28:46.159Z,42.42
2023-05-10T12:31:55.483Z,43.44
2023-05-10T12:34:58.857Z,42.54
2023-05-10T12:38:00.782Z,42.37
2023-05-10T12:41:05.253Z,41.91
2023-05-10T12:44:07.174Z,41.71
2023-05-10T12:47:11.835Z,41.42
2023-05-10T12:50:13.594Z,42.45
2023-05-10T12:53:16.668Z,42.39
2023-05-10T12:56:18.528Z,42.65
2023-05-10T12:59:20.893Z,42.09
2023-05-10T13:02:24.327Z,40.73
2023-05-10T13:05:26.798Z,41.55
2023-05-10T13:08:30.732Z,40.59
2023-05-10T13:11:32.754Z,40.07
2023-05-10T13:14:34.552Z,41.38
2023-05-10T13:17:39.961Z,41.79
2023-05-10T13:20:44.121Z,41.95
2023-05-10T13:23:46.030Z,40.26
2023-05-10T13:26:47.855Z,41.02
2023-05-10T13:29:49.730Z,41.18
2023-05-10T13:32:53.006Z,40.63
2023-05-10T13:35:55.935Z,40.44
2023-05-10T13:38:57.846Z,41.04
2023-05-10T13:41:59.629Z,41.66
2023-05-10T13:45:02.843Z,40.54
2023-05-10T13:48:06.909Z,40.54
2023-05-10T13:51:09.635Z,40.75
2023-05-10T13:54:13.453Z,41.29
2023-05-10T13:57:17.739Z,41.78
2023-05-10T14:00:20.087Z,40.81
2023-05-10T14:03:23.336Z,41.12
2023-05-10T14:06:25.671Z,39.56
2023-05-10T14:09:27.394Z,37.89
2023-05-10T14:12:29.102Z,38.02
2023-05-10T14:15:30.891Z,37.10
2023-05-10T14:18:34.062Z,37.99
2023-05-10T14:21:36.651Z,37.46
2023-05-10T14:24:39.238Z,38.39
2023-05-10T14:27:41.766Z,38.45
2023-05-10T14:30:43.574Z,38.82
2023-05-10T14:33:47.084Z,38.77
2023-05-10T14:36:48.906Z,38.64
2023-05-10T14:39:51.578Z,38.05
2023-05-10T14:42:54.065Z,38.30
2023-05-10T14:45:56.642Z,38.42
2023-05-10T14:48:59.798Z,37.96
2023-05-10T14:52:01.752Z,37.13
2023-05-10T14:55:05.246Z,39.88
2023-05-10T14:58:07.073Z,40.57
2023-05-10T15:01:08.959Z,40.15
2023-05-10T15:04:14.488Z,39.95
2023-05-10T15:07:18.418Z,39.06
2023-05-10T15:10:20.573Z,39.78
2023-05-10T15:13:22.358Z,40.24
2023-05-10T15:16:24.767Z,40.61
2023-05-10T15:19:28.442Z,40.76
2023-05-10T15:22:32.436Z,40.49
2023-05-10T15:25:36.174Z,39.44
2023-05-10T15:28:38.439Z,39.49
2023-05-10T15:31:40.586Z,38.83
2023-05-10T15:34:44.860Z,38.38
2023-05-10T15:37:48.439Z,38.42
2023-05-10T15:40:50.237Z,39.74
2023-05-10T15:43:52.384Z,39.31
2023-05-10T15:46:54.317Z,38.92
2023-05-10T15:49:57.867Z,40.47
2023-05-10T15:52:59.747Z,40.79
2023-05-10T15:56:02.459Z,41.27
2023-05-10T15:59:06.171Z,41.21
2023-05-10T16:02:09.226Z,41.52
2023-05-10T16:05:13.972Z,42.03
2023-05-10T16:08:16.388Z,42.60
2023-05-10T16:11:18.173Z,42.44
2023-05-10T16:14:23.005Z,42.62
2023-05-10T16:17:25.020Z,42.49
2023-05-10T16:20:30.109Z,41.41
2023-05-10T16:23:32.252Z,41.60
2023-05-10T16:26:40.785Z,41.74
2023-05-10T16:29:42.716Z,40.31
2023-05-10T16:32:44.573Z,40.71
2023-05-10T16:35:48.751Z,40.19
2023-05-10T16:38:51.298Z,40.80
2023-05-10T16:41:53.339Z,40.94
2023-05-10T16:44:55.262Z,40.78
2023-05-10T16:47:57.307Z,41.51
2023-05-10T16:51:02.476Z,41.31
2023-05-10T16:54:05.455Z,41.84
2023-05-10T16:57:08.587Z,41.86
2023-05-10T17:00:12.110Z,42.20
2023-05-10T17:03:14.037Z,42.00
2023-05-10T17:06:17.616Z,43.01
2023-05-10T17:09:20.667Z,43.28
2023-05-10T17:12:23.278Z,44.08
2023-05-10T17:15:25.035Z,43.82
2023-05-10T17:18:27.117Z,45.14
2023-05-10T17:21:32.131Z,44.82
2023-05-10T17:24:34.020Z,44.63
2023-05-10T17:27:36.203Z,45.34
2023-05-10T17:30:38.029Z,45.95
2023-05-10T17:33:40.336Z,46.89
2023-05-10T17:36:43.577Z,46.25
2023-05-10T17:39:46.503Z,46.29
2023-05-10T17:42:48.866Z,46.36
2023-05-10T17:45:50.772Z,45.77
2023-05-10T17:48:53.130Z,45.73
2023-05-10T17:51:56.356Z,46.42
2023-05-10T17:55:00.142Z,46.21
2023-05-10T17:58:02.106Z,46.73
2023-05-10T18:01:04.556Z,47.55
2023-05-10T18:04:07.967Z,47.25
2023-05-10T18:07:11.186Z,47.68
2023-05-10T18:10:13.059Z,49.70
2023-05-10T18:13:14.951Z,48.88
2023-05-10T18:16:16.828Z,50.04
2023-05-10T18:19:19.075Z,49.35
2023-05-10T18:22:22.692Z,48.43
2023-05-10T18:25:25.630Z,49.59
2023-05-10T18:28:27.612Z,52.66
2023-05-10T18:31:30.220Z,53.45
2023-05-10T18:34:32.090Z,53.27
2023-05-10T18:37:36.018Z,54.80
2023-05-10T18:40:39.094Z,54.15
2023-05-10T18:43:42.728Z,55.14
2023-05-10T18:46:46.245Z,54.05
2023-05-10T18:49:48.519Z,56.17
2023-05-10T18:52:52.061Z,57.06
2023-05-10T18:55:58.910Z,56.34
2023-05-10T18:59:02.900Z,57.72
2023-05-10T19:02:05.119Z,58.32
2023-05-10T19:05:08.211Z,57.87
2023-05-10T19:08:11.580Z,59.55
2023-05-10T19:11:14.968Z,59.25
2023-05-10T19:14:17.509Z,59.31
2023-05-10T19:17:20.837Z,60.62
2023-05-10T19:20:23.992Z,59.97
2023-05-10T19:23:27.380Z,60.31
2023-05-10T19:26:30.582Z,61.58
2023-05-10T19:29:32.706Z,60.47
2023-05-10T19:32:36.556Z,60.11
2023-05-10T19:35:39.770Z,60.97
2023-05-10T19:38:43.047Z,59.50
2023-05-10T19:41:45.500Z,61.12
2023-05-10T19:44:48.556Z,61.04
2023-05-10T19:47:51.013Z,61.24
2023-05-10T19:50:53.554Z,62.64
2023-05-10T19:53:56.839Z,59.36
2023-05-10T19:56:59.594Z,60.26
2023-05-10T20:00:01.564Z,60.67
2023-05-10T20:03:07.000Z,60.36
2023-05-10T20:06:14.670Z,56.37
2023-05-10T20:09:47.368Z,59.46
2023-05-10T20:13:10.393Z,58.46
2023-05-10T20:16:15.858Z,58.38
2023-05-10T20:19:21.441Z,59.17
2023-05-10T20:22:25.756Z,57.65
2023-05-10T20:25:29.087Z,58.50
2023-05-10T20:28:32.070Z,56.20
2023-05-10T20:31:34.079Z,56.90
2023-05-10T20:34:39.472Z,57.70
2023-05-10T20:37:41.568Z,58.82
2023-05-10T20:40:45.585Z,59.21
2023-05-10T20:43:47.483Z,58.33
2023-05-10T20:46:49.870Z,59.05
2023-05-10T20:49:51.771Z,58.44
2023-05-10T20:52:53.640Z,60.41
2023-05-10T20:55:57.122Z,58.15
2023-05-10T20:58:59.051Z,58.80
2023-05-10T21:02:01.325Z,58.42
2023-05-10T21:05:03.979Z,61.13
2023-05-10T21:08:05.974Z,60.34
2023-05-10T21:11:10.042Z,59.33
2023-05-10T21:14:11.923Z,59.69
2023-05-10T21:17:14.752Z,59.20
2023-05-10T21:20:17.143Z,59.52
2023-05-10T21:23:19.146Z,56.87
2023-05-10T21:26:22.378Z,57.62
2023-05-10T21:29:24.571Z,56.68
2023-05-10T21:32:26.389Z,58.52
2023-05-10T21:35:30.394Z,56.75
2023-05-10T21:38:33.352Z,59.14
2023-05-10T21:41:36.501Z,57.88
2023-05-10T21:44:38.809Z,58.76
2023-05-10T21:47:40.645Z,57.92
2023-05-10T21:50:43.838Z,57.53
2023-05-10T21:53:45.661Z,58.04
2023-05-10T21:56:49.156Z,57.42
2023-05-10T21:59:51.560Z,57.89
2023-05-10T22:02:53.526Z,57.88
2023-05-10T22:05:55.386Z,55.24
2023-05-10T22:08:57.521Z,56.91
2023-05-10T22:12:00.693Z,57.89
2023-05-10T22:18:07.475Z,56.30
2023-05-10T22:21:09.554Z,58.17
2023-05-10T22:24:11.407Z,57.57
2023-05-10T22:27:15.117Z,57.45
2023-05-10T22:30:18.220Z,58.94
2023-05-10T22:33:20.241Z,58.79
2023-05-10T22:36:22.711Z,57.95
2023-05-10T22:39:24.577Z,56.35
2023-05-10T22:42:27.824Z,60.64
2023-05-10T22:45:29.640Z,58.96
2023-05-10T22:48:34.670Z,58.40
2023-05-10T22:51:37.451Z,60.06
2023-05-10T22:54:39.224Z,59.51
2023-05-10T22:57:43.200Z,57.89
2023-05-10T23:00:45.113Z,58.52
2023-05-10T23:03:47.430Z,58.87
2023-05-10T23:06:49.268Z,56.32
2023-05-10T23:09:51.045Z,57.82
2023-05-10T23:12:56.047Z,58.62
2023-05-10T23:15:58.018Z,59.37
2023-05-10T23:19:00.413Z,59.94
2023-05-10T23:22:02.267Z,58.79
2023-05-10T23:25:04.997Z,59.78
2023-05-10T23:28:08.168Z,60.94
2023-05-10T23:31:10.318Z,59.53
2023-05-10T23:34:12.294Z,62.03
2023-05-10T23:37:15.710Z,61.82
2023-05-10T23:40:17.786Z,61.15
2023-05-10T23:43:21.828Z,61.51
2023-05-10T23:46:23.712Z,61.47
2023-05-10T23:49:25.575Z,62.26
2023-05-10T23:52:28.353Z,62.20
2023-05-10T23:55:30.199Z,60.97
2023-05-10T23:58:33.598Z,61.54
